Time;durP1;ratioP1;P1;durP2;ratioP2;P2;SDS_P1;SDS_P2;PMS_P1;PMS_P2;Temp;Humidity;BMP_temperature;BMP_pressure;BME280_temperature;BME280_humidity;BME280_pressure;Samples;Min_cycle;Max_cycle;Signal;HPM_P1;HPM_P2
2023/03/17 00:01:52;;;;;;;4.15;2.63;;;;;;;;;;4996072;28;93569;-78
2023/03/17 00:04:20;;;;;;;2.70;2.10;;;;;;;;;;4991396;28;92436;-78
2023/03/17 00:06:47;;;;;;;2.70;2.22;;;;;;;;;;4993307;28;93386;-78
2023/03/17 00:09:15;;;;;;;6.10;2.40;;;;;;;;;;4993567;28;92610;-78
2023/03/17 00:11:42;;;;;;;3.15;2.50;;;;;;;;;;4987891;28;94152;-78
2023/03/17 00:14:09;;;;;;;4.55;2.63;;;;;;;;;;4995809;28;93373;-78
2023/03/17 00:16:37;;;;;;;5.53;2.28;;;;;;;;;;4993376;28;91927;-79
2023/03/17 00:19:04;;;;;;;2.95;2.33;;;;;;;;;;4996200;28;93864;-79
2023/03/17 00:21:31;;;;;;;3.92;2.45;;;;;;;;;;4977273;28;93608;-79
2023/03/17 00:23:58;;;;;;;8.27;2.55;;;;;;;;;;4983321;28;94867;-79
2023/03/17 00:26:25;;;;;;;4.18;2.40;;;;;;;;;;4995197;28;93696;-80
2023/03/17 00:28:53;;;;;;;7.00;3.03;;;;;;;;;;4979392;28;92468;-79
2023/03/17 00:31:21;;;;;;;6.07;2.55;;;;;;;;;;4982622;28;93112;-79
2023/03/17 00:33:48;;;;;;;4.82;2.22;;;;;;;;;;4983618;28;94422;-78
2023/03/17 00:36:22;;;;;;;7.35;2.92;;;;;;;;;;4994938;28;92476;-79
2023/03/17 00:38:49;;;;;;;7.07;2.53;;;;;;;;;;4991519;28;93254;-79
2023/03/17 00:41:17;;;;;;;4.32;2.30;;;;;;;;;;4983786;28;92587;-78
2023/03/17 00:43:43;;;;;;;4.40;2.80;;;;;;;;;;4995237;28;92552;-77
2023/03/17 00:46:10;;;;;;;5.47;3.08;;;;;;;;;;4990962;28;93305;-77
2023/03/17 00:48:37;;;;;;;3.92;2.63;;;;;;;;;;4993711;28;94819;-77
2023/03/17 00:51:04;;;;;;;9.65;2.72;;;;;;;;;;4995784;28;95682;-77
2023/03/17 00:53:30;;;;;;;3.50;2.42;;;;;;;;;;4995322;28;93395;-79
2023/03/17 00:55:56;;;;;;;9.70;2.97;;;;;;;;;;4994110;28;92549;-78
2023/03/17 00:58:25;;;;;;;3.45;2.50;;;;;;;;;;4982924;28;94144;-78
2023/03/17 01:00:52;;;;;;;3.45;2.50;;;;;;;;;;4975370;28;94466;-78
2023/03/17 01:03:19;;;;;;;9.93;2.83;;;;;;;;;;4975013;28;92546;-78
2023/03/17 01:05:46;;;;;;;15.27;2.50;;;;;;;;;;4976671;28;94283;-78
2023/03/17 01:08:13;;;;;;;4.07;2.38;;;;;;;;;;4978447;28;96333;-78
2023/03/17 01:10:39;;;;;;;8.32;2.90;;;;;;;;;;4985489;28;94970;-78
2023/03/17 01:13:06;;;;;;;13.75;2.78;;;;;;;;;;4990681;28;96303;-77
2023/03/17 01:15:32;;;;;;;7.03;2.70;;;;;;;;;;4986739;28;92707;-77
2023/03/17 01:18:00;;;;;;;5.53;2.45;;;;;;;;;;4981332;28;93105;-77
2023/03/17 01:20:28;;;;;;;3.95;2.60;;;;;;;;;;4994520;28;93758;-77
2023/03/17 01:22:55;;;;;;;6.55;2.58;;;;;;;;;;4988631;28;92564;-78
2023/03/17 01:25:22;;;;;;;3.67;2.40;;;;;;;;;;4978512;28;93100;-77
2023/03/17 01:27:49;;;;;;;9.70;2.72;;;;;;;;;;4993690;28;94011;-77
2023/03/17 01:30:18;;;;;;;2.85;2.50;;;;;;;;;;4987302;28;91745;-78
2023/03/17 01:32:44;;;;;;;3.03;2.50;;;;;;;;;;4976480;28;93770;-78
2023/03/17 01:35:11;;;;;;;5.78;2.10;;;;;;;;;;4990801;28;92559;-78
2023/03/17 01:37:38;;;;;;;7.97;2.53;;;;;;;;;;4977209;28;94790;-79
2023/03/17 01:40:05;;;;;;;3.17;2.53;;;;;;;;;;4987740;28;94000;-78
2023/03/17 01:42:32;;;;;;;3.60;2.17;;;;;;;;;;4985374;28;92555;-78
2023/03/17 01:45:06;;;;;;;3.50;1.95;;;;;;;;;;4993092;28;93051;-77
2023/03/17 01:47:32;;;;;;;7.35;2.72;;;;;;;;;;4975979;28;93561;-77
2023/03/17 01:50:06;;;;;;;7.93;2.38;;;;;;;;;;4992600;28;92728;-77
2023/03/17 01:52:34;;;;;;;5.47;2.38;;;;;;;;;;4997315;28;93531;-77
2023/03/17 01:55:04;;;;;;;3.33;2.33;;;;;;;;;;4994986;28;92125;-77
2023/03/17 01:57:35;;;;;;;2.67;2.25;;;;;;;;;;4985988;28;92642;-80
2023/03/17 02:00:07;;;;;;;9.23;2.60;;;;;;;;;;4974559;28;93585;-78
2023/03/17 02:02:38;;;;;;;4.50;2.55;;;;;;;;;;4988696;28;94894;-81
2023/03/17 02:05:07;;;;;;;5.13;2.33;;;;;;;;;;4976955;28;95664;-80
2023/03/17 02:07:33;;;;;;;4.38;2.13;;;;;;;;;;4983708;28;96436;-81
2023/03/17 02:10:02;;;;;;;7.65;2.58;;;;;;;;;;4973162;28;94289;-80
2023/03/17 02:12:29;;;;;;;6.35;2.30;;;;;;;;;;4980564;28;93090;-78
2023/03/17 02:14:56;;;;;;;4.38;2.50;;;;;;;;;;4986101;28;94417;-80
2023/03/17 02:17:24;;;;;;;8.15;2.58;;;;;;;;;;4973590;28;93340;-80
2023/03/17 02:19:50;;;;;;;5.50;2.40;;;;;;;;;;4988307;28;94926;-79
2023/03/17 02:22:18;;;;;;;4.97;2.28;;;;;;;;;;4994288;28;92563;-79
2023/03/17 02:24:47;;;;;;;2.47;2.10;;;;;;;;;;4993449;28;97983;-79
2023/03/17 02:27:16;;;;;;;3.08;2.05;;;;;;;;;;4991573;28;95649;-79
2023/03/17 02:29:45;;;;;;;3.88;2.17;;;;;;;;;;4990956;28;92544;-78
2023/03/17 02:32:16;;;;;;;3.88;2.80;;;;;;;;;;4987350;28;94059;-79
2023/03/17 02:34:43;;;;;;;6.05;2.38;;;;;;;;;;4995725;28;93798;-78
2023/03/17 02:37:09;;;;;;;6.78;2.30;;;;;;;;;;4984138;28;92723;-78
2023/03/17 02:39:36;;;;;;;2.30;2.10;;;;;;;;;;4991816;28;93424;-79
2023/03/17 02:42:03;;;;;;;5.25;2.22;;;;;;;;;;4995040;28;92498;-79
2023/03/17 02:44:30;;;;;;;4.60;2.00;;;;;;;;;;4981398;28;93584;-79
2023/03/17 02:46:57;;;;;;;4.88;1.90;;;;;;;;;;4995699;28;93765;-79
2023/03/17 02:49:23;;;;;;;2.85;1.92;;;;;;;;;;4989618;28;92491;-79
2023/03/17 02:51:50;;;;;;;2.28;1.98;;;;;;;;;;4991466;28;94733;-79
2023/03/17 02:54:16;;;;;;;2.85;1.75;;;;;;;;;;4993203;28;93376;-78
2023/03/17 02:56:43;;;;;;;3.75;2.30;;;;;;;;;;4979923;28;92564;-79
2023/03/17 02:59:09;;;;;;;3.72;1.98;;;;;;;;;;4995071;28;94036;-78
2023/03/17 03:01:38;;;;;;;7.40;2.05;;;;;;;;;;4990061;28;92456;-78
2023/03/17 03:04:05;;;;;;;8.48;2.08;;;;;;;;;;4975422;28;93411;-77
2023/03/17 03:06:32;;;;;;;4.65;2.25;;;;;;;;;;4980185;28;93559;-78
2023/03/17 03:08:59;;;;;;;5.15;2.22;;;;;;;;;;4977451;28;91744;-78
2023/03/17 03:11:25;;;;;;;7.85;2.25;;;;;;;;;;4975634;28;92508;-79
2023/03/17 03:13:51;;;;;;;3.55;2.08;;;;;;;;;;4977427;28;93654;-79
2023/03/17 03:16:18;;;;;;;6.07;2.38;;;;;;;;;;4979280;28;94853;-79
2023/03/17 03:18:44;;;;;;;5.45;2.53;;;;;;;;;;4995984;28;96566;-79
2023/03/17 03:21:11;;;;;;;3.60;2.08;;;;;;;;;;4995537;28;92557;-79
2023/03/17 03:23:37;;;;;;;3.00;1.92;;;;;;;;;;4989360;28;93123;-78
2023/03/17 03:26:03;;;;;;;4.28;1.95;;;;;;;;;;4976646;28;93432;-79
2023/03/17 03:28:30;;;;;;;3.83;1.90;;;;;;;;;;4976835;28;92408;-78
2023/03/17 03:30:57;;;;;;;5.28;2.28;;;;;;;;;;4986256;28;92704;-78
2023/03/17 03:33:23;;;;;;;3.10;1.95;;;;;;;;;;4992378;28;93061;-78
2023/03/17 03:35:49;;;;;;;4.55;2.05;;;;;;;;;;4989778;28;92793;-79
2023/03/17 03:38:16;;;;;;;5.38;2.03;;;;;;;;;;4982067;28;93164;-80
2023/03/17 03:40:43;;;;;;;5.65;2.40;;;;;;;;;;4982659;28;96419;-80
2023/03/17 03:43:10;;;;;;;5.68;2.20;;;;;;;;;;4985849;28;95873;-80
2023/03/17 03:45:48;;;;;;;3.38;1.98;;;;;;;;;;4998429;28;93547;-78
2023/03/17 03:48:15;;;;;;;6.57;1.88;;;;;;;;;;4995251;28;92414;-77
2023/03/17 03:50:41;;;;;;;2.50;2.20;;;;;;;;;;4985189;28;95329;-77
2023/03/17 03:53:07;;;;;;;7.90;2.00;;;;;;;;;;4976020;28;93403;-78
2023/03/17 03:55:34;;;;;;;7.18;2.30;;;;;;;;;;4986882;28;92444;-77
2023/03/17 03:58:00;;;;;;;7.53;2.67;;;;;;;;;;4996324;28;91714;-78
2023/03/17 04:00:27;;;;;;;3.58;2.08;;;;;;;;;;4993625;28;93852;-78
2023/03/17 04:02:54;;;;;;;5.40;2.03;;;;;;;;;;4995243;28;92538;-78
2023/03/17 04:05:21;;;;;;;5.32;2.00;;;;;;;;;;4986520;28;95183;-77
2023/03/17 04:07:47;;;;;;;3.22;2.03;;;;;;;;;;4991115;28;92715;-79
2023/03/17 04:10:14;;;;;;;4.68;2.30;;;;;;;;;;4985901;28;94358;-79
2023/03/17 04:12:41;;;;;;;4.03;2.42;;;;;;;;;;4990883;28;95082;-79
2023/03/17 04:15:09;;;;;;;8.25;2.20;;;;;;;;;;4994972;28;92884;-79
2023/03/17 04:17:36;;;;;;;3.78;1.90;;;;;;;;;;5007218;28;92870;-79
2023/03/17 04:20:02;;;;;;;4.78;2.10;;;;;;;;;;4982083;28;94425;-79
2023/03/17 04:22:29;;;;;;;5.93;2.30;;;;;;;;;;4990698;28;91839;-78
2023/03/17 04:24:57;;;;;;;2.83;2.03;;;;;;;;;;4995929;28;92949;-79
2023/03/17 04:27:23;;;;;;;5.68;2.28;;;;;;;;;;4981296;28;92495;-79
2023/03/17 04:29:50;;;;;;;2.85;2.03;;;;;;;;;;4987640;28;94902;-78
2023/03/17 04:32:16;;;;;;;8.93;2.40;;;;;;;;;;4985788;28;96922;-78
2023/03/17 04:34:43;;;;;;;2.40;2.20;;;;;;;;;;4981142;28;92538;-78
2023/03/17 04:37:09;;;;;;;4.00;2.00;;;;;;;;;;4984465;28;94545;-78
2023/03/17 04:39:36;;;;;;;6.45;2.75;;;;;;;;;;4981382;28;94901;-79
2023/03/17 04:42:03;;;;;;;4.90;2.22;;;;;;;;;;4980034;28;92547;-79
2023/03/17 04:44:29;;;;;;;9.50;2.00;;;;;;;;;;4996553;28;93281;-79
2023/03/17 04:46:56;;;;;;;4.75;2.47;;;;;;;;;;4993555;28;92237;-79
2023/03/17 04:49:22;;;;;;;3.67;2.05;;;;;;;;;;4991927;28;93763;-80
2023/03/17 04:51:48;;;;;;;9.70;2.25;;;;;;;;;;4977649;28;93079;-79
2023/03/17 04:54:15;;;;;;;4.53;1.85;;;;;;;;;;4989209;28;94863;-78
2023/03/17 04:56:41;;;;;;;3.70;1.88;;;;;;;;;;4983330;28;96486;-78
2023/03/17 04:59:08;;;;;;;3.78;2.10;;;;;;;;;;4995300;28;92445;-79
2023/03/17 05:01:35;;;;;;;3.83;2.47;;;;;;;;;;4993532;28;92974;-78
2023/03/17 05:04:05;;;;;;;2.63;2.40;;;;;;;;;;4994564;28;94342;-78
2023/03/17 05:06:31;;;;;;;3.55;2.17;;;;;;;;;;4997797;28;95696;-77
2023/03/17 05:08:58;;;;;;;2.25;2.03;;;;;;;;;;4976039;28;93123;-77
2023/03/17 05:11:24;;;;;;;2.72;2.15;;;;;;;;;;4982242;28;92579;-78
2023/03/17 05:13:51;;;;;;;6.82;2.13;;;;;;;;;;4993082;28;92528;-78
2023/03/17 05:16:17;;;;;;;6.78;2.67;;;;;;;;;;4994579;28;93232;-78
2023/03/17 05:18:44;;;;;;;2.85;2.17;;;;;;;;;;4993561;28;95869;-78
2023/03/17 05:21:10;;;;;;;7.22;2.33;;;;;;;;;;5004108;28;92475;-78
2023/03/17 05:23:37;;;;;;;3.58;2.05;;;;;;;;;;5004386;28;93165;-78
2023/03/17 05:26:04;;;;;;;2.63;2.00;;;;;;;;;;4984593;28;93815;-78
2023/03/17 05:28:31;;;;;;;7.30;1.98;;;;;;;;;;4999020;28;92458;-78
2023/03/17 05:30:57;;;;;;;4.00;2.38;;;;;;;;;;4993281;28;92441;-78
2023/03/17 05:33:24;;;;;;;7.95;2.20;;;;;;;;;;4987354;28;92644;-77
2023/03/17 05:35:51;;;;;;;6.15;1.90;;;;;;;;;;4999337;28;92980;-78
2023/03/17 05:38:17;;;;;;;2.75;1.83;;;;;;;;;;4999045;28;93566;-78
2023/03/17 05:40:44;;;;;;;1.85;1.63;;;;;;;;;;4983156;28;92829;-78
2023/03/17 05:43:11;;;;;;;11.20;2.50;;;;;;;;;;4990531;28;96178;-77
2023/03/17 05:45:38;;;;;;;2.65;2.00;;;;;;;;;;4996305;28;94392;-80
2023/03/17 05:48:04;;;;;;;3.58;2.28;;;;;;;;;;5014636;28;92417;-79
2023/03/17 05:50:31;;;;;;;3.42;1.98;;;;;;;;;;5017276;28;93190;-81
2023/03/17 05:52:58;;;;;;;5.88;2.20;;;;;;;;;;5017536;28;91915;-80
2023/03/17 05:55:24;;;;;;;6.28;2.38;;;;;;;;;;5014132;28;91986;-79
2023/03/17 05:57:50;;;;;;;4.43;2.45;;;;;;;;;;5016155;28;93777;-80
2023/03/17 06:00:17;;;;;;;4.03;1.95;;;;;;;;;;5016496;28;91414;-80
2023/03/17 06:02:44;;;;;;;6.75;2.42;;;;;;;;;;5006332;28;93491;-79
2023/03/17 06:05:11;;;;;;;3.38;2.05;;;;;;;;;;5008390;28;93594;-79
2023/03/17 06:07:37;;;;;;;3.33;2.03;;;;;;;;;;4997994;28;94932;-78
2023/03/17 06:10:20;;;;;;;3.88;2.25;;;;;;;;;;5017593;28;95796;-79
2023/03/17 06:12:46;;;;;;;4.55;1.98;;;;;;;;;;5012644;28;92427;-77
2023/03/17 06:15:13;;;;;;;4.95;2.22;;;;;;;;;;5016585;28;93415;-79
2023/03/17 06:17:39;;;;;;;9.93;2.17;;;;;;;;;;5019426;28;92536;-80
2023/03/17 06:20:05;;;;;;;3.10;1.77;;;;;;;;;;5003383;28;91955;-80
2023/03/17 06:22:32;;;;;;;6.70;2.50;;;;;;;;;;5006363;28;92351;-79
2023/03/17 06:24:58;;;;;;;5.25;2.25;;;;;;;;;;5017133;28;91268;-79
2023/03/17 06:27:25;;;;;;;6.75;2.10;;;;;;;;;;5005667;28;92536;-79
2023/03/17 06:29:52;;;;;;;3.45;2.10;;;;;;;;;;4992469;28;93288;-78
2023/03/17 06:32:18;;;;;;;4.93;2.30;;;;;;;;;;4992768;28;96814;-79
2023/03/17 06:34:47;;;;;;;6.22;2.38;;;;;;;;;;4997432;28;92439;-79
2023/03/17 06:37:13;;;;;;;4.18;2.78;;;;;;;;;;4995153;28;93514;-79
2023/03/17 06:39:41;;;;;;;6.95;2.60;;;;;;;;;;4990713;28;92504;-79
2023/03/17 06:42:07;;;;;;;5.85;2.45;;;;;;;;;;4990893;28;93120;-78
2023/03/17 06:44:33;;;;;;;9.70;2.40;;;;;;;;;;4985724;28;92629;-78
2023/03/17 06:47:00;;;;;;;8.45;3.55;;;;;;;;;;4993404;28;92507;-79
2023/03/17 06:49:26;;;;;;;5.10;3.30;;;;;;;;;;4992873;28;93183;-79
2023/03/17 06:51:55;;;;;;;5.82;2.80;;;;;;;;;;4994152;28;94396;-79
2023/03/17 06:54:24;;;;;;;11.02;3.53;;;;;;;;;;4988688;28;93564;-79
2023/03/17 06:56:51;;;;;;;7.85;3.50;;;;;;;;;;4980650;28;97061;-79
2023/03/17 06:59:18;;;;;;;4.47;3.17;;;;;;;;;;4993647;28;92491;-79
2023/03/17 07:01:45;;;;;;;7.07;3.33;;;;;;;;;;4988681;28;93761;-79
2023/03/17 07:04:11;;;;;;;5.25;3.00;;;;;;;;;;4987839;28;93480;-77
2023/03/17 07:06:38;;;;;;;4.50;2.92;;;;;;;;;;4994288;28;92392;-79
2023/03/17 07:09:06;;;;;;;4.82;2.72;;;;;;;;;;4993971;28;93153;-78
2023/03/17 07:11:32;;;;;;;3.97;2.67;;;;;;;;;;4992710;28;94519;-78
2023/03/17 07:13:59;;;;;;;8.48;2.75;;;;;;;;;;4993637;28;91759;-78
2023/03/17 07:16:26;;;;;;;8.63;2.92;;;;;;;;;;4981173;28;92348;-78
2023/03/17 07:18:52;;;;;;;7.05;2.88;;;;;;;;;;4993822;28;92432;-78
2023/03/17 07:21:19;;;;;;;8.52;3.08;;;;;;;;;;4981357;28;96048;-78
2023/03/17 07:23:45;;;;;;;2.83;2.25;;;;;;;;;;4990003;28;94509;-78
2023/03/17 07:26:12;;;;;;;3.90;3.05;;;;;;;;;;4987508;28;94067;-78
2023/03/17 07:28:39;;;;;;;5.15;2.97;;;;;;;;;;4987656;28;93949;-78
2023/03/17 07:31:08;;;;;;;4.55;2.28;;;;;;;;;;4990454;28;93606;-77
2023/03/17 07:33:34;;;;;;;4.60;2.70;;;;;;;;;;4996386;28;92465;-76
2023/03/17 07:36:01;;;;;;;7.80;3.40;;;;;;;;;;4996579;28;93058;-77
2023/03/17 07:38:28;;;;;;;3.08;2.47;;;;;;;;;;5000267;28;92444;-76
2023/03/17 07:40:55;;;;;;;4.20;2.65;;;;;;;;;;4990802;28;93664;-77
2023/03/17 07:43:21;;;;;;;2.85;2.50;;;;;;;;;;4993330;28;93275;-77
2023/03/17 07:45:47;;;;;;;5.60;2.38;;;;;;;;;;4993993;28;94893;-77
2023/03/17 07:48:14;;;;;;;7.13;2.92;;;;;;;;;;4980843;28;95804;-77
2023/03/17 07:50:41;;;;;;;6.60;2.58;;;;;;;;;;4983312;28;93504;-77
2023/03/17 07:53:07;;;;;;;5.00;2.75;;;;;;;;;;4994573;28;92501;-77
2023/03/17 07:55:35;;;;;;;6.25;2.58;;;;;;;;;;4995910;28;93090;-77
2023/03/17 07:58:02;;;;;;;7.35;2.35;;;;;;;;;;4992357;28;93458;-76
2023/03/17 08:00:29;;;;;;;5.13;2.85;;;;;;;;;;4997085;28;92597;-76
2023/03/17 08:02:56;;;;;;;7.65;2.90;;;;;;;;;;4996472;28;92982;-77
2023/03/17 08:05:35;;;;;;;7.50;3.13;;;;;;;;;;4994996;28;92459;-76
2023/03/17 08:08:01;;;;;;;7.30;3.25;;;;;;;;;;4995169;28;93183;-77
2023/03/17 08:10:28;;;;;;;7.03;3.15;;;;;;;;;;4992515;28;96014;-77
2023/03/17 08:12:55;;;;;;;9.90;3.10;;;;;;;;;;4996198;28;92499;-77
2023/03/17 08:15:21;;;;;;;7.43;3.53;;;;;;;;;;4993107;28;93286;-77
2023/03/17 08:17:47;;;;;;;7.13;2.90;;;;;;;;;;4978899;28;93571;-77
2023/03/17 08:20:14;;;;;;;11.00;3.33;;;;;;;;;;4990718;28;92557;-76
2023/03/17 08:22:40;;;;;;;4.03;2.85;;;;;;;;;;4991595;28;93230;-77
2023/03/17 08:25:08;;;;;;;6.65;3.20;;;;;;;;;;4990993;28;92526;-77
2023/03/17 08:27:35;;;;;;;6.95;3.67;;;;;;;;;;4992458;28;94347;-76
2023/03/17 08:30:02;;;;;;;4.63;2.53;;;;;;;;;;4983881;28;93478;-76
2023/03/17 08:32:28;;;;;;;6.03;2.88;;;;;;;;;;4976924;28;93107;-76
2023/03/17 08:34:55;;;;;;;4.28;2.95;;;;;;;;;;4978594;28;95749;-76
2023/03/17 08:37:23;;;;;;;5.03;2.50;;;;;;;;;;4984959;28;92525;-76
2023/03/17 08:39:49;;;;;;;9.88;3.03;;;;;;;;;;4993952;28;92486;-76
2023/03/17 08:42:16;;;;;;;6.55;2.85;;;;;;;;;;4995943;28;93280;-76
2023/03/17 08:44:42;;;;;;;9.25;2.88;;;;;;;;;;4993973;28;92887;-76
2023/03/17 08:47:09;;;;;;;12.50;3.00;;;;;;;;;;4994758;28;93504;-76
2023/03/17 08:49:36;;;;;;;7.97;3.60;;;;;;;;;;4992404;28;93604;-76
2023/03/17 08:52:02;;;;;;;7.97;2.97;;;;;;;;;;4995528;28;91825;-76
2023/03/17 08:54:29;;;;;;;4.45;2.78;;;;;;;;;;4993625;28;92846;-76
2023/03/17 08:56:56;;;;;;;6.82;2.95;;;;;;;;;;4992368;28;93443;-76
2023/03/17 08:59:22;;;;;;;4.30;2.70;;;;;;;;;;4980482;28;94963;-76
2023/03/17 09:01:49;;;;;;;4.00;2.80;;;;;;;;;;4994914;28;95617;-76
2023/03/17 09:04:15;;;;;;;6.53;2.97;;;;;;;;;;4994081;28;94071;-76
2023/03/17 09:06:42;;;;;;;4.75;2.80;;;;;;;;;;4993487;28;93326;-76
2023/03/17 09:09:29;;;;;;;9.40;2.95;;;;;;;;;;4993942;28;93234;-76
2023/03/17 09:11:56;;;;;;;9.98;2.97;;;;;;;;;;4984257;28;92558;-76
2023/03/17 09:14:23;;;;;;;8.98;2.83;;;;;;;;;;4993972;28;93144;-76
2023/03/17 09:16:50;;;;;;;4.07;2.47;;;;;;;;;;4989441;28;92342;-76
2023/03/17 09:19:16;;;;;;;5.68;3.17;;;;;;;;;;4991775;28;92629;-77
2023/03/17 09:21:43;;;;;;;5.28;3.17;;;;;;;;;;4995252;28;95465;-77
2023/03/17 09:24:10;;;;;;;6.90;3.08;;;;;;;;;;4991830;28;96161;-76
2023/03/17 09:26:36;;;;;;;8.75;3.00;;;;;;;;;;4997207;28;92491;-77
2023/03/17 09:29:04;;;;;;;6.90;2.95;;;;;;;;;;4993587;28;94682;-76
2023/03/17 09:31:31;;;;;;;10.35;3.00;;;;;;;;;;4994772;28;93188;-77
2023/03/17 09:33:58;;;;;;;10.13;3.55;;;;;;;;;;4993052;28;93511;-76
2023/03/17 09:36:25;;;;;;;15.50;4.00;;;;;;;;;;4991181;28;93690;-76
2023/03/17 09:38:51;;;;;;;8.60;3.50;;;;;;;;;;4990659;28;92591;-76
2023/03/17 09:41:23;;;;;;;10.95;3.35;;;;;;;;;;4992208;28;93168;-77
2023/03/17 09:43:55;;;;;;;11.13;3.63;;;;;;;;;;4992935;28;94172;-76
2023/03/17 09:46:37;;;;;;;11.02;3.47;;;;;;;;;;4985762;28;92436;-76
2023/03/17 09:49:07;;;;;;;9.20;3.53;;;;;;;;;;4988203;28;96119;-77
2023/03/17 09:51:37;;;;;;;;;;;;;;;;;;4990588;28;92509;-75
2023/03/17 09:54:05;;;;;;;16.30;3.50;;;;;;;;;;4993265;28;123879;-77
2023/03/17 09:56:33;;;;;;;7.53;3.50;;;;;;;;;;4990995;28;93199;-77
2023/03/17 09:59:03;;;;;;;10.38;3.78;;;;;;;;;;4993020;28;92480;-77
2023/03/17 10:01:29;;;;;;;;;;;;;;;;;;4993096;28;93281;-75
2023/03/17 10:03:56;;;;;;;6.35;3.17;;;;;;;;;;4994728;28;124039;-77
2023/03/17 10:06:31;;;;;;;13.98;3.30;;;;;;;;;;4993368;28;91785;-77
2023/03/17 10:09:14;;;;;;;5.45;2.92;;;;;;;;;;4993922;28;92382;-77
2023/03/17 10:11:41;;;;;;;7.22;3.63;;;;;;;;;;4993917;28;93692;-77
2023/03/17 10:14:23;;;;;;;13.80;3.42;;;;;;;;;;4991755;28;94885;-77
2023/03/17 10:17:12;;;;;;;11.23;3.00;;;;;;;;;;4994102;28;94766;-77
2023/03/17 10:19:53;;;;;;;7.35;3.13;;;;;;;;;;4991188;28;92526;-77
2023/03/17 10:22:41;;;;;;;11.65;3.50;;;;;;;;;;4992579;28;93057;-77
2023/03/17 10:25:15;;;;;;;11.55;3.58;;;;;;;;;;4993214;28;93319;-77
2023/03/17 10:27:44;;;;;;;9.38;3.85;;;;;;;;;;4994222;28;92578;-79
2023/03/17 10:30:16;;;;;;;9.57;3.25;;;;;;;;;;4993739;28;96127;-79
2023/03/17 10:32:43;;;;;;;9.98;3.17;;;;;;;;;;4993209;28;92992;-80
2023/03/17 10:35:10;;;;;;;12.65;3.67;;;;;;;;;;4995443;28;92528;-79
2023/03/17 10:37:36;;;;;;;9.32;3.65;;;;;;;;;;4992279;28;93581;-79
2023/03/17 10:40:08;;;;;;;5.68;2.90;;;;;;;;;;4990535;28;94848;-79
2023/03/17 10:42:44;;;;;;;7.32;3.30;;;;;;;;;;4991404;28;97399;-79
2023/03/17 10:45:28;;;;;;;8.25;3.42;;;;;;;;;;4993370;28;93649;-79
2023/03/17 10:47:56;;;;;;;8.27;2.97;;;;;;;;;;4993531;28;92367;-80
2023/03/17 10:50:33;;;;;;;11.45;3.70;;;;;;;;;;4992570;28;93105;-79
2023/03/17 10:53:04;;;;;;;10.52;3.30;;;;;;;;;;4991266;28;92535;-80
2023/03/17 10:55:32;;;;;;;7.18;3.35;;;;;;;;;;4976890;28;92769;-79
2023/03/17 10:58:04;;;;;;;10.95;3.03;;;;;;;;;;4975824;28;92687;-79
2023/03/17 11:00:34;;;;;;;11.82;3.08;;;;;;;;;;4992370;28;95229;-79
2023/03/17 11:03:11;;;;;;;12.15;3.30;;;;;;;;;;4995467;28;93399;-79
2023/03/17 11:05:38;;;;;;;6.55;3.17;;;;;;;;;;4990829;28;95617;-79
2023/03/17 11:08:10;;;;;;;6.90;3.55;;;;;;;;;;4995585;28;92694;-79
2023/03/17 11:10:38;;;;;;;6.82;3.25;;;;;;;;;;4996289;28;94796;-79
2023/03/17 11:13:04;;;;;;;7.10;3.20;;;;;;;;;;4996087;28;93975;-80
2023/03/17 11:15:32;;;;;;;6.85;3.28;;;;;;;;;;4994395;28;92737;-80
2023/03/17 11:18:06;;;;;;;7.38;3.55;;;;;;;;;;4995343;28;92583;-80
2023/03/17 11:20:38;;;;;;;8.40;3.15;;;;;;;;;;4995902;28;92468;-80
2023/03/17 11:23:15;;;;;;;7.57;3.38;;;;;;;;;;4994562;28;93012;-79
2023/03/17 11:25:42;;;;;;;9.63;3.45;;;;;;;;;;4976857;28;92722;-80
2023/03/17 11:28:19;;;;;;;5.72;3.35;;;;;;;;;;4976882;28;92460;-79
2023/03/17 11:30:57;;;;;;;7.72;3.42;;;;;;;;;;4975208;28;94916;-80
2023/03/17 11:33:35;;;;;;;6.05;3.38;;;;;;;;;;4978646;28;93426;-80
2023/03/17 11:36:10;;;;;;;7.68;3.05;;;;;;;;;;4996509;28;92500;-80
2023/03/17 11:38:42;;;;;;;7.07;3.40;;;;;;;;;;4994694;28;93972;-79
2023/03/17 11:41:24;;;;;;;6.43;3.70;;;;;;;;;;4999109;28;96741;-79
2023/03/17 11:44:09;;;;;;;9.07;3.97;;;;;;;;;;4995738;28;93172;-79
2023/03/17 11:46:39;;;;;;;7.55;3.50;;;;;;;;;;4994245;28;93468;-79
2023/03/17 11:49:08;;;;;;;12.27;3.80;;;;;;;;;;4991564;28;91766;-79
2023/03/17 11:51:50;;;;;;;10.10;3.70;;;;;;;;;;4995836;28;93592;-80
2023/03/17 11:54:30;;;;;;;11.25;3.80;;;;;;;;;;4992935;28;94340;-79
2023/03/17 11:56:58;;;;;;;7.25;3.75;;;;;;;;;;4993428;28;94966;-80
2023/03/17 11:59:34;;;;;;;9.38;3.42;;;;;;;;;;4993949;28;95717;-80
2023/03/17 12:02:10;;;;;;;5.85;3.53;;;;;;;;;;4994910;28;93717;-79
2023/03/17 12:04:39;;;;;;;10.80;3.53;;;;;;;;;;4997904;28;92569;-80
2023/03/17 12:07:26;;;;;;;5.88;3.55;;;;;;;;;;4996153;28;93547;-80
2023/03/17 12:10:11;;;;;;;11.63;4.13;;;;;;;;;;4979138;28;92469;-79
2023/03/17 12:12:41;;;;;;;8.88;3.47;;;;;;;;;;4992670;28;94401;-79
2023/03/17 12:15:14;;;;;;;7.50;3.40;;;;;;;;;;4995517;28;93315;-80
2023/03/17 12:17:50;;;;;;;11.00;4.00;;;;;;;;;;4994121;28;92859;-80
2023/03/17 12:20:24;;;;;;;10.10;4.25;;;;;;;;;;4993213;28;93148;-79
2023/03/17 12:22:55;;;;;;;7.93;3.15;;;;;;;;;;4974990;28;97773;-79
2023/03/17 12:25:24;;;;;;;10.23;3.38;;;;;;;;;;4975794;28;92537;-79
2023/03/17 12:27:56;;;;;;;5.90;3.78;;;;;;;;;;4981667;28;93279;-80
2023/03/17 12:30:28;;;;;;;12.35;3.17;;;;;;;;;;4996134;28;92533;-78
2023/03/17 12:33:03;;;;;;;9.00;3.70;;;;;;;;;;4995704;28;93141;-77
2023/03/17 12:35:34;;;;;;;11.05;4.30;;;;;;;;;;4980524;28;95009;-78
2023/03/17 12:38:09;;;;;;;9.20;3.92;;;;;;;;;;4983003;28;92569;-78
2023/03/17 12:40:55;;;;;;;5.22;3.38;;;;;;;;;;4996669;28;92895;-78
2023/03/17 12:43:31;;;;;;;7.55;4.03;;;;;;;;;;4994124;28;93533;-78
2023/03/17 12:46:21;;;;;;;9.52;4.10;;;;;;;;;;4992557;28;93053;-78
2023/03/17 12:48:47;;;;;;;;;;;;;;;;;;4993368;28;94905;-77
2023/03/17 12:51:22;;;;;;;6.18;4.00;;;;;;;;;;4999525;28;122832;-77
2023/03/17 12:53:50;;;;;;;7.32;4.15;;;;;;;;;;4993092;28;93123;-78
2023/03/17 12:56:19;;;;;;;8.25;3.83;;;;;;;;;;4993853;28;93353;-77
2023/03/17 12:58:48;;;;;;;8.68;4.38;;;;;;;;;;4994512;28;92503;-78
2023/03/17 13:01:17;;;;;;;8.90;3.92;;;;;;;;;;4991126;28;93208;-77
2023/03/17 13:03:45;;;;;;;6.50;4.07;;;;;;;;;;4994353;28;93596;-77
2023/03/17 13:06:15;;;;;;;9.60;4.00;;;;;;;;;;4994787;28;91762;-78
2023/03/17 13:08:41;;;;;;;10.40;4.63;;;;;;;;;;4995259;28;92431;-77
2023/03/17 13:11:14;;;;;;;14.68;4.40;;;;;;;;;;4996581;28;93747;-77
2023/03/17 13:13:45;;;;;;;5.97;4.18;;;;;;;;;;4989039;28;95128;-78
2023/03/17 13:16:29;;;;;;;12.38;4.57;;;;;;;;;;4977796;28;93637;-77
2023/03/17 13:19:06;;;;;;;16.92;4.55;;;;;;;;;;4986551;28;92441;-77
2023/03/17 13:21:33;;;;;;;9.20;4.35;;;;;;;;;;4992570;28;93521;-78
2023/03/17 13:24:17;;;;;;;8.70;4.40;;;;;;;;;;4992979;28;96926;-77
2023/03/17 13:26:46;;;;;;;8.75;4.88;;;;;;;;;;4992251;28;92467;-77
2023/03/17 13:29:24;;;;;;;8.83;4.50;;;;;;;;;;4994334;28;93609;-77
2023/03/17 13:31:50;;;;;;;9.18;4.15;;;;;;;;;;4994088;28;92844;-78
2023/03/17 13:34:18;;;;;;;16.58;5.03;;;;;;;;;;4996291;28;92739;-79
2023/03/17 13:36:56;;;;;;;8.68;4.43;;;;;;;;;;4993907;28;93978;-77
2023/03/17 13:39:41;;;;;;;12.77;4.97;;;;;;;;;;4993355;28;94875;-78
2023/03/17 13:42:16;;;;;;;8.95;4.90;;;;;;;;;;4993992;28;95895;-77
2023/03/17 13:44:59;;;;;;;10.20;5.30;;;;;;;;;;4993461;28;94488;-78
2023/03/17 13:47:30;;;;;;;7.53;4.57;;;;;;;;;;4986049;28;92454;-78
2023/03/17 13:49:59;;;;;;;9.43;4.07;;;;;;;;;;4992508;28;94558;-78
2023/03/17 13:52:31;;;;;;;11.90;4.70;;;;;;;;;;4979479;28;93711;-78
2023/03/17 13:55:15;;;;;;;7.43;4.65;;;;;;;;;;4975517;28;93169;-78
2023/03/17 13:57:52;;;;;;;6.93;4.40;;;;;;;;;;4987700;28;93082;-78
2023/03/17 14:00:21;;;;;;;10.02;4.85;;;;;;;;;;4989915;28;92658;-78
2023/03/17 14:02:48;;;;;;;7.53;4.55;;;;;;;;;;4983524;28;93480;-77
2023/03/17 14:05:22;;;;;;;8.23;4.38;;;;;;;;;;4991064;28;96259;-78
2023/03/17 14:07:54;;;;;;;8.93;4.60;;;;;;;;;;4989335;28;92568;-78
2023/03/17 14:10:23;;;;;;;11.27;5.20;;;;;;;;;;4987641;28;94687;-78
2023/03/17 14:13:12;;;;;;;8.18;4.70;;;;;;;;;;4981581;28;94920;-78
2023/03/17 14:15:49;;;;;;;7.80;4.35;;;;;;;;;;4974498;28;92439;-78
2023/03/17 14:18:34;;;;;;;6.47;4.35;;;;;;;;;;4974814;28;94393;-77
2023/03/17 14:21:03;;;;;;;10.48;4.05;;;;;;;;;;4988864;28;93725;-78
2023/03/17 14:23:35;;;;;;;14.48;4.97;;;;;;;;;;4992644;28;93149;-78
2023/03/17 14:26:02;;;;;;;8.57;5.15;;;;;;;;;;4989717;28;93428;-78
2023/03/17 14:28:30;;;;;;;11.73;4.80;;;;;;;;;;4989214;28;92540;-78
2023/03/17 14:31:01;;;;;;;9.05;4.57;;;;;;;;;;4978256;28;94810;-78
2023/03/17 14:33:28;;;;;;;9.27;4.30;;;;;;;;;;4993595;28;94021;-78
2023/03/17 14:35:56;;;;;;;12.35;4.25;;;;;;;;;;4993432;28;92422;-78
2023/03/17 14:38:24;;;;;;;10.27;5.07;;;;;;;;;;4996511;28;93367;-78
2023/03/17 14:40:59;;;;;;;12.02;5.13;;;;;;;;;;4992083;28;93272;-78
2023/03/17 14:43:25;;;;;;;16.58;5.13;;;;;;;;;;4998001;28;92468;-77
2023/03/17 14:45:53;;;;;;;9.70;4.65;;;;;;;;;;4995768;28;93427;-78
2023/03/17 14:48:25;;;;;;;9.90;4.60;;;;;;;;;;4997859;28;91697;-78
2023/03/17 14:50:52;;;;;;;17.50;4.45;;;;;;;;;;4985930;28;92729;-78
2023/03/17 14:53:22;;;;;;;10.68;4.30;;;;;;;;;;4991047;28;93492;-79